sensor_id;sensor_type;location;lat;lon;timestamp;P1;durP1;ratioP1;P2;durP2;ratioP2
46308;SDS011;32037;50.820;6.494;2023-04-24T04:12:44;2.50;;;1.83;;
46308;SDS011;32037;50.820;6.494;2023-04-24T04:15:17;3.27;;;2.40;;
46308;SDS011;32037;50.820;6.494;2023-04-24T04:17:46;2.83;;;2.13;;
46308;SDS011;32037;50.820;6.494;2023-04-24T04:20:15;2.83;;;2.43;;
46308;SDS011;32037;50.820;6.494;2023-04-24T04:22:43;3.00;;;2.30;;
46308;SDS011;32037;50.820;6.494;2023-04-24T04:25:17;3.30;;;2.60;;
46308;SDS011;32037;50.820;6.494;2023-04-24T04:27:48;2.87;;;2.20;;
46308;SDS011;32037;50.820;6.494;2023-04-24T04:30:19;4.67;;;2.20;;
46308;SDS011;32037;50.820;6.494;2023-04-24T04:32:56;3.97;;;2.80;;
46308;SDS011;32037;50.820;6.494;2023-04-24T04:35:25;2.77;;;2.23;;
46308;SDS011;32037;50.820;6.494;2023-04-24T04:37:55;2.40;;;1.73;;
46308;SDS011;32037;50.820;6.494;2023-04-24T04:40:42;2.40;;;2.00;;
46308;SDS011;32037;50.820;6.494;2023-04-24T04:43:13;2.50;;;2.20;;
46308;SDS011;32037;50.820;6.494;2023-04-24T04:45:50;3.90;;;2.40;;
46308;SDS011;32037;50.820;6.494;2023-04-24T04:48:42;3.80;;;2.30;;
46308;SDS011;32037;50.820;6.494;2023-04-24T04:51:14;2.90;;;2.17;;
46308;SDS011;32037;50.820;6.494;2023-04-24T04:53:43;2.93;;;2.40;;
46308;SDS011;32037;50.820;6.494;2023-04-24T04:56:13;2.77;;;2.17;;
46308;SDS011;32037;50.820;6.494;2023-04-24T04:58:47;3.10;;;2.63;;
46308;SDS011;32037;50.820;6.494;2023-04-24T05:01:18;3.20;;;2.70;;
46308;SDS011;32037;50.820;6.494;2023-04-24T05:03:48;2.83;;;2.37;;
46308;SDS011;32037;50.820;6.494;2023-04-24T05:06:17;2.60;;;2.23;;
46308;SDS011;32037;50.820;6.494;2023-04-24T05:08:50;3.73;;;2.50;;
46308;SDS011;32037;50.820;6.494;2023-04-24T05:11:33;2.63;;;2.00;;
46308;SDS011;32037;50.820;6.494;2023-04-24T05:14:03;2.70;;;2.00;;
46308;SDS011;32037;50.820;6.494;2023-04-24T05:16:38;3.43;;;2.47;;
46308;SDS011;32037;50.820;6.494;2023-04-24T05:19:08;4.40;;;2.57;;
46308;SDS011;32037;50.820;6.494;2023-04-24T05:21:40;2.63;;;1.60;;
46308;SDS011;32037;50.820;6.494;2023-04-24T05:24:13;5.07;;;2.43;;
46308;SDS011;32037;50.820;6.494;2023-04-24T05:27:11;3.27;;;2.40;;
46308;SDS011;32037;50.820;6.494;2023-04-24T05:29:41;3.77;;;2.40;;
46308;SDS011;32037;50.820;6.494;2023-04-24T05:32:12;2.43;;;2.23;;
46308;SDS011;32037;50.820;6.494;2023-04-24T05:34:40;3.07;;;2.03;;
46308;SDS011;32037;50.820;6.494;2023-04-24T05:37:09;2.80;;;2.27;;
46308;SDS011;32037;50.820;6.494;2023-04-24T05:39:38;2.13;;;1.93;;
46308;SDS011;32037;50.820;6.494;2023-04-24T05:42:09;2.60;;;1.80;;
46308;SDS011;32037;50.820;6.494;2023-04-24T05:44:38;4.73;;;2.00;;
46308;SDS011;32037;50.820;6.494;2023-04-24T05:47:10;2.83;;;2.40;;
46308;SDS011;32037;50.820;6.494;2023-04-24T05:49:44;2.90;;;1.83;;
46308;SDS011;32037;50.820;6.494;2023-04-24T05:52:25;2.43;;;1.70;;
46308;SDS011;32037;50.820;6.494;2023-04-24T05:55:18;2.20;;;1.80;;
46308;SDS011;32037;50.820;6.494;2023-04-24T05:57:52;2.40;;;2.20;;
46308;SDS011;32037;50.820;6.494;2023-04-24T06:00:24;2.53;;;1.97;;
46308;SDS011;32037;50.820;6.494;2023-04-24T06:03:04;1.97;;;1.50;;
46308;SDS011;32037;50.820;6.494;2023-04-24T06:05:40;2.80;;;1.93;;
46308;SDS011;32037;50.820;6.494;2023-04-24T06:08:12;1.93;;;1.57;;
46308;SDS011;32037;50.820;6.494;2023-04-24T06:10:47;2.50;;;1.90;;
46308;SDS011;32037;50.820;6.494;2023-04-24T06:13:20;2.20;;;1.60;;
46308;SDS011;32037;50.820;6.494;2023-04-24T06:16:24;2.30;;;1.57;;
46308;SDS011;32037;50.820;6.494;2023-04-24T06:19:12;2.00;;;1.63;;
46308;SDS011;32037;50.820;6.494;2023-04-24T06:21:41;2.97;;;2.00;;
46308;SDS011;32037;50.820;6.494;2023-04-24T06:24:10;1.90;;;1.40;;
46308;SDS011;32037;50.820;6.494;2023-04-24T06:26:38;2.47;;;1.77;;
46308;SDS011;32037;50.820;6.494;2023-04-24T06:29:08;3.07;;;1.73;;
46308;SDS011;32037;50.820;6.494;2023-04-24T06:31:36;2.17;;;1.40;;
46308;SDS011;32037;50.820;6.494;2023-04-24T06:34:06;1.77;;;1.57;;
46308;SDS011;32037;50.820;6.494;2023-04-24T06:36:36;2.03;;;1.50;;
46308;SDS011;32037;50.820;6.494;2023-04-24T06:39:05;3.80;;;1.97;;
46308;SDS011;32037;50.820;6.494;2023-04-24T06:41:33;2.60;;;1.43;;
46308;SDS011;32037;50.820;6.494;2023-04-24T06:44:02;1.97;;;1.27;;
46308;SDS011;32037;50.820;6.494;2023-04-24T06:46:31;2.23;;;1.67;;
46308;SDS011;32037;50.820;6.494;2023-04-24T06:49:00;2.70;;;1.50;;
46308;SDS011;32037;50.820;6.494;2023-04-24T06:51:29;2.10;;;1.63;;
46308;SDS011;32037;50.820;6.494;2023-04-24T06:54:00;2.20;;;1.80;;
46308;SDS011;32037;50.820;6.494;2023-04-24T06:56:29;2.77;;;1.40;;
46308;SDS011;32037;50.820;6.494;2023-04-24T06:59:00;2.50;;;1.63;;
46308;SDS011;32037;50.820;6.494;2023-04-24T07:01:29;1.90;;;1.30;;
46308;SDS011;32037;50.820;6.494;2023-04-24T07:03:58;3.20;;;1.60;;
46308;SDS011;32037;50.820;6.494;2023-04-24T07:06:26;2.80;;;1.73;;
46308;SDS011;32037;50.820;6.494;2023-04-24T07:08:58;2.07;;;1.70;;
46308;SDS011;32037;50.820;6.494;2023-04-24T07:11:29;2.20;;;1.80;;
46308;SDS011;32037;50.820;6.494;2023-04-24T07:13:59;1.70;;;1.30;;
46308;SDS011;32037;50.820;6.494;2023-04-24T07:16:28;2.17;;;1.77;;
46308;SDS011;32037;50.820;6.494;2023-04-24T07:18:59;2.53;;;1.77;;
46308;SDS011;32037;50.820;6.494;2023-04-24T07:21:27;2.27;;;1.80;;
46308;SDS011;32037;50.820;6.494;2023-04-24T07:24:00;2.03;;;1.47;;
46308;SDS011;32037;50.820;6.494;2023-04-24T07:26:40;2.53;;;1.40;;
46308;SDS011;32037;50.820;6.494;2023-04-24T07:29:09;2.10;;;1.43;;
46308;SDS011;32037;50.820;6.494;2023-04-24T07:31:37;1.80;;;1.50;;
46308;SDS011;32037;50.820;6.494;2023-04-24T07:34:07;1.97;;;1.60;;
46308;SDS011;32037;50.820;6.494;2023-04-24T07:36:36;2.00;;;1.40;;
46308;SDS011;32037;50.820;6.494;2023-04-24T07:39:05;1.97;;;1.50;;
46308;SDS011;32037;50.820;6.494;2023-04-24T07:41:34;2.20;;;1.80;;
46308;SDS011;32037;50.820;6.494;2023-04-24T07:44:04;1.63;;;1.20;;
46308;SDS011;32037;50.820;6.494;2023-04-24T07:46:33;1.80;;;1.40;;
46308;SDS011;32037;50.820;6.494;2023-04-24T07:49:02;2.53;;;1.40;;
46308;SDS011;32037;50.820;6.494;2023-04-24T07:51:40;2.90;;;1.73;;
46308;SDS011;32037;50.820;6.494;2023-04-24T07:54:09;1.60;;;1.43;;
46308;SDS011;32037;50.820;6.494;2023-04-24T07:56:38;2.47;;;1.10;;
46308;SDS011;32037;50.820;6.494;2023-04-24T07:59:08;2.03;;;1.27;;
46308;SDS011;32037;50.820;6.494;2023-04-24T08:01:37;2.37;;;1.70;;
46308;SDS011;32037;50.820;6.494;2023-04-24T08:04:07;1.80;;;1.20;;
46308;SDS011;32037;50.820;6.494;2023-04-24T08:06:37;1.80;;;1.30;;
46308;SDS011;32037;50.820;6.494;2023-04-24T08:09:06;2.00;;;1.50;;
46308;SDS011;32037;50.820;6.494;2023-04-24T08:11:35;2.00;;;1.47;;
46308;SDS011;32037;50.820;6.494;2023-04-24T08:14:06;1.90;;;1.53;;
46308;SDS011;32037;50.820;6.494;2023-04-24T08:16:40;2.63;;;1.60;;
46308;SDS011;32037;50.820;6.494;2023-04-24T08:19:21;2.77;;;1.90;;
46308;SDS011;32037;50.820;6.494;2023-04-24T08:21:58;2.50;;;1.53;;
46308;SDS011;32037;50.820;6.494;2023-04-24T08:24:27;3.20;;;1.30;;
46308;SDS011;32037;50.820;6.494;2023-04-24T08:26:56;2.37;;;1.40;;
46308;SDS011;32037;50.820;6.494;2023-04-24T08:29:28;2.07;;;1.80;;
46308;SDS011;32037;50.820;6.494;2023-04-24T08:31:56;2.50;;;1.63;;
46308;SDS011;32037;50.820;6.494;2023-04-24T08:34:25;2.50;;;1.80;;
46308;SDS011;32037;50.820;6.494;2023-04-24T08:36:54;2.47;;;1.70;;
46308;SDS011;32037;50.820;6.494;2023-04-24T08:39:22;2.70;;;1.43;;
46308;SDS011;32037;50.820;6.494;2023-04-24T08:41:51;3.80;;;1.70;;
46308;SDS011;32037;50.820;6.494;2023-04-24T08:44:21;1.60;;;1.20;;
46308;SDS011;32037;50.820;6.494;2023-04-24T08:46:51;1.93;;;1.63;;
46308;SDS011;32037;50.820;6.494;2023-04-24T08:49:21;2.27;;;1.63;;
46308;SDS011;32037;50.820;6.494;2023-04-24T08:51:53;2.07;;;1.63;;
46308;SDS011;32037;50.820;6.494;2023-04-24T08:54:21;2.40;;;1.60;;
46308;SDS011;32037;50.820;6.494;2023-04-24T08:56:50;2.93;;;2.10;;
46308;SDS011;32037;50.820;6.494;2023-04-24T09:27:06;3.47;;;2.10;;
46308;SDS011;32037;50.820;6.494;2023-04-24T09:29:36;2.27;;;1.60;;
46308;SDS011;32037;50.820;6.494;2023-04-24T09:35:04;3.57;;;1.90;;
46308;SDS011;32037;50.820;6.494;2023-04-24T09:37:36;1.90;;;1.57;;
46308;SDS011;32037;50.820;6.494;2023-04-24T09:40:12;2.43;;;1.77;;
46308;SDS011;32037;50.820;6.494;2023-04-24T09:42:45;2.37;;;1.50;;
46308;SDS011;32037;50.820;6.494;2023-04-24T09:45:14;3.30;;;1.70;;
46308;SDS011;32037;50.820;6.494;2023-04-24T09:47:43;2.03;;;1.70;;
46308;SDS011;32037;50.820;6.494;2023-04-24T10:13:54;2.90;;;2.00;;
46308;SDS011;32037;50.820;6.494;2023-04-24T10:16:52;3.40;;;1.87;;
46308;SDS011;32037;50.820;6.494;2023-04-24T10:21:11;1.87;;;1.63;;
46308;SDS011;32037;50.820;6.494;2023-04-24T10:23:40;3.00;;;1.67;;
46308;SDS011;32037;50.820;6.494;2023-04-24T10:26:10;2.27;;;1.93;;
46308;SDS011;32037;50.820;6.494;2023-04-24T10:28:44;3.00;;;1.87;;
46308;SDS011;32037;50.820;6.494;2023-04-24T10:31:14;3.10;;;2.80;;
46308;SDS011;32037;50.820;6.494;2023-04-24T10:33:43;3.50;;;2.63;;
46308;SDS011;32037;50.820;6.494;2023-04-24T10:36:14;4.70;;;1.90;;
46308;SDS011;32037;50.820;6.494;2023-04-24T10:38:45;2.40;;;1.90;;
46308;SDS011;32037;50.820;6.494;2023-04-24T10:41:16;2.53;;;1.90;;
46308;SDS011;32037;50.820;6.494;2023-04-24T10:44:03;3.37;;;2.60;;
46308;SDS011;32037;50.820;6.494;2023-04-24T10:46:35;3.10;;;2.10;;
46308;SDS011;32037;50.820;6.494;2023-04-24T10:49:05;3.53;;;1.77;;
46308;SDS011;32037;50.820;6.494;2023-04-24T10:51:46;3.20;;;2.20;;
46308;SDS011;32037;50.820;6.494;2023-04-24T10:54:21;2.97;;;2.10;;
46308;SDS011;32037;50.820;6.494;2023-04-24T10:56:51;2.43;;;2.23;;
46308;SDS011;32037;50.820;6.494;2023-04-24T10:59:26;2.93;;;2.53;;
46308;SDS011;32037;50.820;6.494;2023-04-24T11:02:05;3.20;;;1.80;;
46308;SDS011;32037;50.820;6.494;2023-04-24T11:04:35;2.37;;;2.07;;
46308;SDS011;32037;50.820;6.494;2023-04-24T11:07:04;2.77;;;2.30;;
46308;SDS011;32037;50.820;6.494;2023-04-24T11:09:33;2.40;;;1.90;;
46308;SDS011;32037;50.820;6.494;2023-04-24T11:12:05;3.20;;;2.37;;
46308;SDS011;32037;50.820;6.494;2023-04-24T11:17:31;4.70;;;2.70;;
46308;SDS011;32037;50.820;6.494;2023-04-24T11:20:01;2.90;;;2.30;;
46308;SDS011;32037;50.820;6.494;2023-04-24T11:22:52;3.30;;;2.20;;
46308;SDS011;32037;50.820;6.494;2023-04-24T11:25:22;2.97;;;2.40;;
46308;SDS011;32037;50.820;6.494;2023-04-24T11:27:52;3.67;;;2.73;;
46308;SDS011;32037;50.820;6.494;2023-04-24T11:30:32;5.17;;;2.30;;
46308;SDS011;32037;50.820;6.494;2023-04-24T11:33:03;4.20;;;2.13;;
46308;SDS011;32037;50.820;6.494;2023-04-24T11:35:34;5.03;;;2.83;;
46308;SDS011;32037;50.820;6.494;2023-04-24T11:38:06;4.60;;;3.27;;
46308;SDS011;32037;50.820;6.494;2023-04-24T11:40:50;3.47;;;2.23;;
46308;SDS011;32037;50.820;6.494;2023-04-24T11:43:19;4.37;;;2.97;;
46308;SDS011;32037;50.820;6.494;2023-04-24T11:45:49;3.27;;;2.77;;
46308;SDS011;32037;50.820;6.494;2023-04-24T11:48:21;3.70;;;2.30;;
46308;SDS011;32037;50.820;6.494;2023-04-24T11:50:50;2.83;;;2.53;;
46308;SDS011;32037;50.820;6.494;2023-04-24T11:53:19;6.43;;;3.20;;
46308;SDS011;32037;50.820;6.494;2023-04-24T11:55:48;3.80;;;2.23;;
46308;SDS011;32037;50.820;6.494;2023-04-24T11:58:20;3.27;;;2.63;;
46308;SDS011;32037;50.820;6.494;2023-04-24T12:00:55;2.83;;;2.13;;
46308;SDS011;32037;50.820;6.494;2023-04-24T12:03:26;5.27;;;3.17;;
46308;SDS011;32037;50.820;6.494;2023-04-24T12:06:04;5.90;;;3.03;;
46308;SDS011;32037;50.820;6.494;2023-04-24T12:08:34;3.70;;;2.60;;
46308;SDS011;32037;50.820;6.494;2023-04-24T12:11:05;3.00;;;2.60;;
46308;SDS011;32037;50.820;6.494;2023-04-24T12:13:35;3.13;;;2.40;;
46308;SDS011;32037;50.820;6.494;2023-04-24T12:16:04;3.33;;;3.03;;
46308;SDS011;32037;50.820;6.494;2023-04-24T12:18:42;3.53;;;2.50;;
46308;SDS011;32037;50.820;6.494;2023-04-24T12:21:20;3.30;;;3.00;;
46308;SDS011;32037;50.820;6.494;2023-04-24T12:23:54;3.27;;;2.53;;
46308;SDS011;32037;50.820;6.494;2023-04-24T12:26:23;3.30;;;2.50;;
46308;SDS011;32037;50.820;6.494;2023-04-24T12:28:52;3.20;;;2.30;;
46308;SDS011;32037;50.820;6.494;2023-04-24T12:31:21;4.83;;;2.87;;
46308;SDS011;32037;50.820;6.494;2023-04-24T12:33:51;5.20;;;2.77;;
46308;SDS011;32037;50.820;6.494;2023-04-24T12:36:21;3.80;;;2.03;;
46308;SDS011;32037;50.820;6.494;2023-04-24T12:38:52;5.40;;;3.07;;
46308;SDS011;32037;50.820;6.494;2023-04-24T12:41:21;4.17;;;3.00;;
46308;SDS011;32037;50.820;6.494;2023-04-24T12:43:53;5.50;;;3.20;;
46308;SDS011;32037;50.820;6.494;2023-04-24T12:46:23;4.93;;;2.80;;
46308;SDS011;32037;50.820;6.494;2023-04-24T12:48:53;4.70;;;3.33;;
46308;SDS011;32037;50.820;6.494;2023-04-24T12:51:22;5.20;;;2.90;;
46308;SDS011;32037;50.820;6.494;2023-04-24T12:53:51;4.20;;;3.20;;
46308;SDS011;32037;50.820;6.494;2023-04-24T12:56:22;3.37;;;2.63;;
46308;SDS011;32037;50.820;6.494;2023-04-24T12:58:50;4.43;;;3.53;;
46308;SDS011;32037;50.820;6.494;2023-04-24T13:01:19;5.83;;;3.03;;
46308;SDS011;32037;50.820;6.494;2023-04-24T13:03:47;5.70;;;2.70;;
46308;SDS011;32037;50.820;6.494;2023-04-24T13:06:17;8.40;;;3.77;;
46308;SDS011;32037;50.820;6.494;2023-04-24T13:08:45;6.57;;;2.93;;
46308;SDS011;32037;50.820;6.494;2023-04-24T13:11:15;4.27;;;3.10;;
46308;SDS011;32037;50.820;6.494;2023-04-24T13:13:43;4.53;;;3.23;;
46308;SDS011;32037;50.820;6.494;2023-04-24T13:16:12;3.80;;;2.67;;
46308;SDS011;32037;50.820;6.494;2023-04-24T13:18:40;3.10;;;2.80;;
46308;SDS011;32037;50.820;6.494;2023-04-24T13:21:09;5.17;;;3.50;;
46308;SDS011;32037;50.820;6.494;2023-04-24T13:23:39;4.35;;;3.40;;
46308;SDS011;32037;50.820;6.494;2023-04-24T13:26:09;8.23;;;3.93;;
46308;SDS011;32037;50.820;6.494;2023-04-24T13:28:37;6.03;;;3.50;;
46308;SDS011;32037;50.820;6.494;2023-04-24T13:31:06;4.60;;;3.10;;
46308;SDS011;32037;50.820;6.494;2023-04-24T13:33:35;3.87;;;3.20;;
46308;SDS011;32037;50.820;6.494;2023-04-24T13:36:04;5.37;;;3.43;;
46308;SDS011;32037;50.820;6.494;2023-04-24T13:38:35;4.60;;;3.07;;
46308;SDS011;32037;50.820;6.494;2023-04-24T13:41:05;3.80;;;3.10;;
46308;SDS011;32037;50.820;6.494;2023-04-24T13:43:34;4.70;;;3.00;;
46308;SDS011;32037;50.820;6.494;2023-04-24T13:46:02;4.30;;;3.40;;
46308;SDS011;32037;50.820;6.494;2023-04-24T13:48:31;4.33;;;3.63;;
46308;SDS011;32037;50.820;6.494;2023-04-24T13:51:00;4.63;;;3.20;;
46308;SDS011;32037;50.820;6.494;2023-04-24T13:53:28;5.20;;;3.47;;
46308;SDS011;32037;50.820;6.494;2023-04-24T13:55:57;4.47;;;3.30;;
46308;SDS011;32037;50.820;6.494;2023-04-24T13:58:27;7.53;;;3.87;;
46308;SDS011;32037;50.820;6.494;2023-04-24T14:00:55;3.53;;;3.00;;
46308;SDS011;32037;50.820;6.494;2023-04-24T14:03:24;4.43;;;3.17;;
46308;SDS011;32037;50.820;6.494;2023-04-24T14:05:53;4.83;;;3.43;;
46308;SDS011;32037;50.820;6.494;2023-04-24T14:08:22;3.53;;;2.73;;
46308;SDS011;32037;50.820;6.494;2023-04-24T14:10:51;7.33;;;3.60;;
46308;SDS011;32037;50.820;6.494;2023-04-24T14:13:19;3.93;;;2.90;;
46308;SDS011;32037;50.820;6.494;2023-04-24T14:15:50;6.47;;;3.00;;
46308;SDS011;32037;50.820;6.494;2023-04-24T14:18:20;7.03;;;3.17;;
46308;SDS011;32037;50.820;6.494;2023-04-24T14:20:49;2.70;;;2.50;;
46308;SDS011;32037;50.820;6.494;2023-04-24T14:23:17;4.30;;;3.10;;
46308;SDS011;32037;50.820;6.494;2023-04-24T14:25:47;5.00;;;2.90;;
46308;SDS011;32037;50.820;6.494;2023-04-24T14:28:18;3.67;;;3.03;;
46308;SDS011;32037;50.820;6.494;2023-04-24T14:30:47;3.70;;;2.87;;
46308;SDS011;32037;50.820;6.494;2023-04-24T14:33:17;2.90;;;2.40;;
46308;SDS011;32037;50.820;6.494;2023-04-24T14:35:46;3.80;;;3.00;;
46308;SDS011;32037;50.820;6.494;2023-04-24T14:38:14;5.10;;;4.00;;
46308;SDS011;32037;50.820;6.494;2023-04-24T14:40:43;5.80;;;2.90;;
46308;SDS011;32037;50.820;6.494;2023-04-24T14:43:31;4.10;;;2.73;;
46308;SDS011;32037;50.820;6.494;2023-04-24T14:46:03;4.10;;;3.20;;
46308;SDS011;32037;50.820;6.494;2023-04-24T14:48:32;4.60;;;3.20;;
46308;SDS011;32037;50.820;6.494;2023-04-24T14:51:00;5.77;;;2.80;;
46308;SDS011;32037;50.820;6.494;2023-04-24T14:53:32;5.13;;;4.17;;
46308;SDS011;32037;50.820;6.494;2023-04-24T14:56:02;7.53;;;4.82;;
46308;SDS011;32037;50.820;6.494;2023-04-24T14:58:30;5.23;;;3.73;;
46308;SDS011;32037;50.820;6.494;2023-04-24T15:00:59;5.00;;;3.10;;
46308;SDS011;32037;50.820;6.494;2023-04-24T15:03:28;4.00;;;3.10;;
46308;SDS011;32037;50.820;6.494;2023-04-24T15:05:57;4.67;;;3.73;;
46308;SDS011;32037;50.820;6.494;2023-04-24T15:08:26;5.50;;;3.90;;
46308;SDS011;32037;50.820;6.494;2023-04-24T15:10:55;4.20;;;3.57;;
46308;SDS011;32037;50.820;6.494;2023-04-24T15:13:23;4.47;;;3.50;;
46308;SDS011;32037;50.820;6.494;2023-04-24T15:15:52;6.50;;;3.80;;
46308;SDS011;32037;50.820;6.494;2023-04-24T15:18:20;4.80;;;3.40;;
46308;SDS011;32037;50.820;6.494;2023-04-24T15:20:50;5.83;;;4.20;;
46308;SDS011;32037;50.820;6.494;2023-04-24T15:23:19;5.77;;;2.80;;
46308;SDS011;32037;50.820;6.494;2023-04-24T15:25:47;3.53;;;2.70;;
46308;SDS011;32037;50.820;6.494;2023-04-24T15:28:16;4.43;;;3.10;;
46308;SDS011;32037;50.820;6.494;2023-04-24T15:30:45;4.13;;;3.53;;
46308;SDS011;32037;50.820;6.494;2023-04-24T15:33:19;4.60;;;3.20;;
46308;SDS011;32037;50.820;6.494;2023-04-24T15:35:48;3.70;;;2.90;;
46308;SDS011;32037;50.820;6.494;2023-04-24T15:38:18;4.53;;;3.47;;
46308;SDS011;32037;50.820;6.494;2023-04-24T15:40:46;4.97;;;3.40;;
46308;SDS011;32037;50.820;6.494;2023-04-24T15:43:15;4.57;;;3.40;;
46308;SDS011;32037;50.820;6.494;2023-04-24T15:45:44;5.10;;;3.23;;
46308;SDS011;32037;50.820;6.494;2023-04-24T15:48:12;5.13;;;2.97;;
46308;SDS011;32037;50.820;6.494;2023-04-24T15:50:41;5.50;;;3.10;;
46308;SDS011;32037;50.820;6.494;2023-04-24T15:53:09;5.00;;;3.20;;
46308;SDS011;32037;50.820;6.494;2023-04-24T15:55:39;4.10;;;2.60;;
46308;SDS011;32037;50.820;6.494;2023-04-24T15:58:07;4.40;;;3.70;;
46308;SDS011;32037;50.820;6.494;2023-04-24T16:00:36;3.60;;;3.20;;
46308;SDS011;32037;50.820;6.494;2023-04-24T16:03:04;4.23;;;3.53;;
46308;SDS011;32037;50.820;6.494;2023-04-24T16:05:35;4.80;;;3.30;;
46308;SDS011;32037;50.820;6.494;2023-04-24T16:08:04;5.70;;;4.20;;
46308;SDS011;32037;50.820;6.494;2023-04-24T16:10:33;8.47;;;4.10;;
46308;SDS011;32037;50.820;6.494;2023-04-24T16:13:03;4.60;;;3.70;;
46308;SDS011;32037;50.820;6.494;2023-04-24T16:15:32;4.50;;;3.50;;
46308;SDS011;32037;50.820;6.494;2023-04-24T16:18:02;3.60;;;3.30;;
46308;SDS011;32037;50.820;6.494;2023-04-24T16:20:30;4.00;;;3.60;;
46308;SDS011;32037;50.820;6.494;2023-04-24T16:22:59;4.80;;;3.30;;
46308;SDS011;32037;50.820;6.494;2023-04-24T16:25:28;3.80;;;3.40;;
46308;SDS011;32037;50.820;6.494;2023-04-24T16:27:57;8.23;;;3.57;;
46308;SDS011;32037;50.820;6.494;2023-04-24T16:30:28;6.40;;;3.67;;
46308;SDS011;32037;50.820;6.494;2023-04-24T16:32:57;5.23;;;3.50;;
46308;SDS011;32037;50.820;6.494;2023-04-24T16:35:25;4.73;;;3.30;;
46308;SDS011;32037;50.820;6.494;2023-04-24T16:37:54;5.00;;;3.50;;
46308;SDS011;32037;50.820;6.494;2023-04-24T16:40:22;4.87;;;3.43;;
46308;SDS011;32037;50.820;6.494;2023-04-24T16:42:51;7.90;;;3.90;;
46308;SDS011;32037;50.820;6.494;2023-04-24T16:45:20;4.60;;;3.17;;
46308;SDS011;32037;50.820;6.494;2023-04-24T16:47:50;6.73;;;3.40;;
46308;SDS011;32037;50.820;6.494;2023-04-24T16:50:19;5.70;;;3.10;;
46308;SDS011;32037;50.820;6.494;2023-04-24T16:52:47;5.50;;;3.17;;
46308;SDS011;32037;50.820;6.494;2023-04-24T16:55:16;5.13;;;3.60;;
46308;SDS011;32037;50.820;6.494;2023-04-24T16:57:45;5.17;;;3.87;;
46308;SDS011;32037;50.820;6.494;2023-04-24T17:00:14;3.80;;;2.80;;
46308;SDS011;32037;50.820;6.494;2023-04-24T17:02:43;8.17;;;3.50;;
46308;SDS011;32037;50.820;6.494;2023-04-24T17:05:16;5.63;;;3.27;;
46308;SDS011;32037;50.820;6.494;2023-04-24T17:07:46;7.30;;;3.20;;
46308;SDS011;32037;50.820;6.494;2023-04-24T17:10:15;4.00;;;2.90;;
46308;SDS011;32037;50.820;6.494;2023-04-24T17:12:43;4.00;;;3.03;;
46308;SDS011;32037;50.820;6.494;2023-04-24T17:15:12;4.60;;;3.33;;
46308;SDS011;32037;50.820;6.494;2023-04-24T17:17:41;4.27;;;3.20;;
46308;SDS011;32037;50.820;6.494;2023-04-24T17:20:11;7.37;;;3.23;;
46308;SDS011;32037;50.820;6.494;2023-04-24T17:22:50;3.53;;;2.80;;
46308;SDS011;32037;50.820;6.494;2023-04-24T17:25:19;4.90;;;3.97;;
46308;SDS011;32037;50.820;6.494;2023-04-24T17:27:48;4.40;;;3.47;;
46308;SDS011;32037;50.820;6.494;2023-04-24T17:30:17;5.47;;;3.27;;
46308;SDS011;32037;50.820;6.494;2023-04-24T17:32:45;4.70;;;3.03;;
46308;SDS011;32037;50.820;6.494;2023-04-24T17:35:14;3.47;;;2.83;;
46308;SDS011;32037;50.820;6.494;2023-04-24T17:37:43;4.97;;;2.80;;
46308;SDS011;32037;50.820;6.494;2023-04-24T17:40:13;4.20;;;3.43;;
46308;SDS011;32037;50.820;6.494;2023-04-24T17:42:42;3.97;;;2.77;;
46308;SDS011;32037;50.820;6.494;2023-04-24T17:45:11;2.93;;;2.57;;
46308;SDS011;32037;50.820;6.494;2023-04-24T17:47:39;3.63;;;2.73;;
46308;SDS011;32037;50.820;6.494;2023-04-24T17:50:08;3.70;;;3.13;;
46308;SDS011;32037;50.820;6.494;2023-04-24T17:52:37;2.83;;;2.53;;
46308;SDS011;32037;50.820;6.494;2023-04-24T17:55:07;4.20;;;3.03;;
46308;SDS011;32037;50.820;6.494;2023-04-24T17:57:37;3.20;;;2.90;;
46308;SDS011;32037;50.820;6.494;2023-04-24T18:00:06;3.30;;;2.97;;
46308;SDS011;32037;50.820;6.494;2023-04-24T18:02:35;5.30;;;3.00;;
46308;SDS011;32037;50.820;6.494;2023-04-24T18:05:04;3.80;;;3.07;;
46308;SDS011;32037;50.820;6.494;2023-04-24T18:07:33;4.27;;;2.83;;
46308;SDS011;32037;50.820;6.494;2023-04-24T18:10:01;4.90;;;3.00;;
46308;SDS011;32037;50.820;6.494;2023-04-24T18:12:30;5.37;;;3.17;;
46308;SDS011;32037;50.820;6.494;2023-04-24T18:15:01;3.70;;;2.50;;
46308;SDS011;32037;50.820;6.494;2023-04-24T18:17:40;3.63;;;2.70;;
46308;SDS011;32037;50.820;6.494;2023-04-24T18:20:09;3.63;;;2.50;;
46308;SDS011;32037;50.820;6.494;2023-04-24T18:22:39;3.03;;;2.73;;
46308;SDS011;32037;50.820;6.494;2023-04-24T18:25:10;3.27;;;2.97;;
46308;SDS011;32037;50.820;6.494;2023-04-24T18:27:40;4.63;;;2.80;;
46308;SDS011;32037;50.820;6.494;2023-04-24T18:30:11;3.70;;;2.53;;
46308;SDS011;32037;50.820;6.494;2023-04-24T18:32:40;3.33;;;2.70;;
46308;SDS011;32037;50.820;6.494;2023-04-24T18:35:09;4.93;;;3.07;;
46308;SDS011;32037;50.820;6.494;2023-04-24T18:37:37;3.10;;;2.03;;
46308;SDS011;32037;50.820;6.494;2023-04-24T18:40:07;4.37;;;2.80;;
46308;SDS011;32037;50.820;6.494;2023-04-24T18:42:36;3.30;;;2.70;;
46308;SDS011;32037;50.820;6.494;2023-04-24T18:45:06;3.90;;;2.60;;
46308;SDS011;32037;50.820;6.494;2023-04-24T18:47:40;3.87;;;2.37;;
46308;SDS011;32037;50.820;6.494;2023-04-24T18:50:09;3.60;;;2.27;;
46308;SDS011;32037;50.820;6.494;2023-04-24T18:52:40;2.87;;;2.57;;
46308;SDS011;32037;50.820;6.494;2023-04-24T18:55:08;3.90;;;2.70;;
46308;SDS011;32037;50.820;6.494;2023-04-24T18:57:37;2.73;;;2.50;;
46308;SDS011;32037;50.820;6.494;2023-04-24T19:00:07;5.30;;;2.63;;
46308;SDS011;32037;50.820;6.494;2023-04-24T19:02:37;7.43;;;2.80;;
46308;SDS011;32037;50.820;6.494;2023-04-24T19:05:08;3.40;;;2.40;;
46308;SDS011;32037;50.820;6.494;2023-04-24T19:07:37;4.70;;;2.60;;
46308;SDS011;32037;50.820;6.494;2023-04-24T19:10:08;2.93;;;2.63;;
46308;SDS011;32037;50.820;6.494;2023-04-24T19:12:37;3.80;;;2.60;;
46308;SDS011;32037;50.820;6.494;2023-04-24T19:15:06;3.60;;;2.50;;
46308;SDS011;32037;50.820;6.494;2023-04-24T19:17:37;5.03;;;2.80;;
46308;SDS011;32037;50.820;6.494;2023-04-24T19:20:06;3.87;;;2.97;;
46308;SDS011;32037;50.820;6.494;2023-04-24T19:22:37;2.60;;;2.40;;
46308;SDS011;32037;50.820;6.494;2023-04-24T19:25:05;4.07;;;2.70;;
46308;SDS011;32037;50.820;6.494;2023-04-24T19:27:35;3.40;;;2.40;;
46308;SDS011;32037;50.820;6.494;2023-04-24T19:30:04;3.20;;;2.33;;
46308;SDS011;32037;50.820;6.494;2023-04-24T19:32:33;3.00;;;2.50;;
46308;SDS011;32037;50.820;6.494;2023-04-24T19:35:02;3.63;;;2.47;;
46308;SDS011;32037;50.820;6.494;2023-04-24T19:37:32;3.20;;;2.90;;
46308;SDS011;32037;50.820;6.494;2023-04-24T19:40:01;2.93;;;2.43;;
46308;SDS011;32037;50.820;6.494;2023-04-24T19:42:30;2.27;;;2.07;;
46308;SDS011;32037;50.820;6.494;2023-04-24T19:45:10;4.17;;;2.57;;
46308;SDS011;32037;50.820;6.494;2023-04-24T19:47:39;3.20;;;2.90;;
46308;SDS011;32037;50.820;6.494;2023-04-24T19:50:07;3.67;;;2.77;;
46308;SDS011;32037;50.820;6.494;2023-04-24T19:52:37;3.00;;;2.20;;
46308;SDS011;32037;50.820;6.494;2023-04-24T19:55:06;3.07;;;2.73;;
46308;SDS011;32037;50.820;6.494;2023-04-24T19:57:35;3.27;;;2.10;;
46308;SDS011;32037;50.820;6.494;2023-04-24T20:00:04;2.40;;;1.90;;
46308;SDS011;32037;50.820;6.494;2023-04-24T20:02:34;3.43;;;2.50;;
46308;SDS011;32037;50.820;6.494;2023-04-24T20:05:03;2.70;;;2.40;;
46308;SDS011;32037;50.820;6.494;2023-04-24T20:07:32;2.70;;;2.40;;
46308;SDS011;32037;50.820;6.494;2023-04-24T20:10:02;2.30;;;1.93;;
46308;SDS011;32037;50.820;6.494;2023-04-24T20:12:31;2.87;;;2.23;;
46308;SDS011;32037;50.820;6.494;2023-04-24T20:15:01;2.90;;;2.60;;
46308;SDS011;32037;50.820;6.494;2023-04-24T20:17:30;3.03;;;2.00;;
46308;SDS011;32037;50.820;6.494;2023-04-24T20:19:58;4.37;;;2.07;;